Time;durP1;ratioP1;P1;durP2;ratioP2;P2;SDS_P1;SDS_P2;PMS_P1;PMS_P2;Temp;Humidity;BMP_temperature;BMP_pressure;BME280_temperature;BME280_humidity;BME280_pressure;Samples;Min_cycle;Max_cycle;Signal;HPM_P1;HPM_P2
2021/10/21 00:00:15;;;;;;;13.57;6.37;;;15.70;65.70;;;;;;4973887;28;20475;-77
2021/10/21 00:02:41;;;;;;;9.85;5.90;;;15.80;64.40;;;;;;4974350;28;20442;-77
2021/10/21 00:05:07;;;;;;;11.13;6.20;;;15.90;63.70;;;;;;4974760;28;20420;-77
2021/10/21 00:07:33;;;;;;;11.07;5.55;;;15.90;62.70;;;;;;4980945;28;20411;-77
2021/10/21 00:10:02;;;;;;;10.70;6.80;;;16.00;63.30;;;;;;4979862;28;20384;-77
2021/10/21 00:12:29;;;;;;;10.95;6.43;;;16.00;64.90;;;;;;4979385;28;20388;-76
2021/10/21 00:14:55;;;;;;;7.72;6.18;;;16.00;66.30;;;;;;4975003;28;20399;-77
2021/10/21 00:17:20;;;;;;;11.93;6.90;;;16.10;67.00;;;;;;4978358;28;20388;-77
2021/10/21 00:19:46;;;;;;;10.03;6.17;;;16.00;69.40;;;;;;4974544;28;20392;-75
2021/10/21 00:22:12;;;;;;;10.63;6.47;;;16.00;71.30;;;;;;4974212;28;20388;-75
2021/10/21 00:24:37;;;;;;;11.37;6.53;;;15.90;74.50;;;;;;4973555;28;20403;-77
2021/10/21 00:27:03;;;;;;;9.93;6.53;;;15.80;76.70;;;;;;4977941;28;20412;-77
2021/10/21 00:29:29;;;;;;;16.20;7.30;;;15.80;78.80;;;;;;4974587;28;20882;-77
2021/10/21 00:31:54;;;;;;;13.85;7.32;;;15.80;82.10;;;;;;4976030;28;20413;-77
2021/10/21 00:34:20;;;;;;;12.93;6.90;;;15.70;84.30;;;;;;4985732;28;20467;-78
2021/10/21 00:36:45;;;;;;;13.57;7.13;;;15.60;83.80;;;;;;4985307;28;20556;-78
2021/10/21 00:39:11;;;;;;;12.13;6.90;;;15.70;85.40;;;;;;4982407;28;20400;-79
2021/10/21 00:41:37;;;;;;;10.80;6.15;;;15.70;84.20;;;;;;4978384;28;20395;-78
2021/10/21 00:44:08;;;;;;;9.53;5.60;;;15.70;82.20;;;;;;4976852;28;20396;-77
2021/10/21 00:46:38;;;;;;;12.80;5.90;;;15.70;82.90;;;;;;4981363;28;20416;-77
2021/10/21 00:49:05;;;;;;;8.37;5.77;;;15.70;82.80;;;;;;4974411;28;20968;-78
2021/10/21 00:51:32;;;;;;;13.60;5.50;;;15.70;82.90;;;;;;4975917;28;20475;-78
2021/10/21 00:53:58;;;;;;;14.90;5.30;;;15.70;83.20;;;;;;4977099;28;20492;-78
2021/10/21 00:56:24;;;;;;;11.43;4.70;;;15.60;82.70;;;;;;4985675;28;20523;-76
2021/10/21 00:58:50;;;;;;;8.73;4.80;;;15.60;82.00;;;;;;4972528;28;20409;-76
2021/10/21 01:01:20;;;;;;;9.27;4.00;;;15.80;79.70;;;;;;4973188;28;21022;-77
2021/10/21 01:03:46;;;;;;;4.78;3.63;;;15.80;75.90;;;;;;4973225;28;20419;-77
2021/10/21 01:06:12;;;;;;;5.10;3.90;;;15.80;75.80;;;;;;4973060;28;20940;-76
2021/10/21 01:08:39;;;;;;;4.68;3.20;;;15.80;74.70;;;;;;4972277;28;20475;-77
2021/10/21 01:11:06;;;;;;;4.25;3.50;;;15.90;71.60;;;;;;4987654;28;20396;-76
2021/10/21 01:13:32;;;;;;;3.33;2.47;;;15.90;63.60;;;;;;4976165;28;20439;-76
2021/10/21 01:16:06;;;;;;;4.43;3.00;;;16.00;62.20;;;;;;4973219;28;20392;-76
2021/10/21 01:18:33;;;;;;;5.43;2.55;;;16.00;58.80;;;;;;4972538;28;20393;-75
2021/10/21 01:20:59;;;;;;;8.45;1.90;;;16.10;51.90;;;;;;4972654;28;20393;-76
2021/10/21 01:23:25;;;;;;;3.50;1.60;;;16.10;46.40;;;;;;4975970;28;20408;-75
2021/10/21 01:25:50;;;;;;;4.30;1.60;;;16.00;43.70;;;;;;4972749;28;20439;-76
2021/10/21 01:28:16;;;;;;;5.70;1.83;;;15.90;44.30;;;;;;4972707;28;20422;-76
2021/10/21 01:30:42;;;;;;;5.30;2.00;;;15.70;42.50;;;;;;4972346;28;20399;-76
2021/10/21 01:33:08;;;;;;;3.90;1.90;;;15.60;44.00;;;;;;4975221;28;20420;-75
2021/10/21 01:35:33;;;;;;;4.50;1.60;;;15.70;41.90;;;;;;4972195;28;20392;-76
2021/10/21 01:37:59;;;;;;;4.10;1.30;;;15.70;40.30;;;;;;4971856;28;20388;-76
2021/10/21 01:40:25;;;;;;;4.53;1.60;;;15.70;40.20;;;;;;4972911;28;20384;-75
2021/10/21 01:42:50;;;;;;;4.40;1.53;;;15.60;39.30;;;;;;4974269;28;20438;-75
2021/10/21 01:45:20;;;;;;;4.50;1.60;;;15.60;39.00;;;;;;4971986;28;20945;-75
2021/10/21 01:47:46;;;;;;;4.43;1.52;;;15.60;36.90;;;;;;4972374;28;20782;-75
2021/10/21 01:50:12;;;;;;;4.07;1.60;;;15.60;37.50;;;;;;4972503;28;20399;-74
2021/10/21 01:52:38;;;;;;;3.33;1.67;;;15.70;37.10;;;;;;4975433;28;20410;-74
2021/10/21 01:55:05;;;;;;;3.08;1.67;;;15.70;36.10;;;;;;4977480;28;20491;-76
2021/10/21 01:57:31;;;;;;;2.30;1.40;;;15.60;35.40;;;;;;4972196;28;20446;-76
2021/10/21 01:59:57;;;;;;;2.60;1.50;;;15.70;35.60;;;;;;4972939;28;20392;-75
2021/10/21 02:02:22;;;;;;;4.47;1.60;;;15.50;36.90;;;;;;4973857;28;20705;-75
2021/10/21 02:04:48;;;;;;;4.67;1.50;;;15.50;35.20;;;;;;4972687;28;20869;-74
2021/10/21 02:07:13;;;;;;;19.88;2.22;;;15.50;32.60;;;;;;4971290;28;20932;-74
2021/10/21 02:09:39;;;;;;;3.43;1.57;;;15.40;33.80;;;;;;4971343;28;20439;-74
2021/10/21 02:12:05;;;;;;;5.20;1.70;;;15.40;31.50;;;;;;4971610;28;20399;-74
2021/10/21 02:14:30;;;;;;;5.27;1.50;;;15.40;31.20;;;;;;4974953;28;20396;-74
2021/10/21 02:16:57;;;;;;;10.10;1.47;;;15.30;31.70;;;;;;4971619;28;20519;-73
2021/10/21 02:19:22;;;;;;;8.32;1.70;;;15.20;30.60;;;;;;4972345;28;20392;-74
2021/10/21 02:21:48;;;;;;;9.00;1.50;;;15.10;30.60;;;;;;4970597;28;20885;-76
2021/10/21 02:24:13;;;;;;;6.33;1.40;;;15.00;31.30;;;;;;4974506;28;20440;-74
2021/10/21 02:26:39;;;;;;;6.50;1.43;;;15.00;31.20;;;;;;4971160;28;20463;-75
2021/10/21 02:29:05;;;;;;;4.87;1.30;;;14.90;31.70;;;;;;4971288;28;20760;-75
2021/10/21 02:31:30;;;;;;;5.20;1.25;;;14.80;31.80;;;;;;4970421;28;20392;-75
2021/10/21 02:33:56;;;;;;;8.20;1.80;;;14.80;31.70;;;;;;4971247;28;20452;-75
2021/10/21 02:36:21;;;;;;;5.13;1.50;;;14.70;31.90;;;;;;4971402;28;20805;-75
2021/10/21 02:38:47;;;;;;;11.50;1.50;;;14.70;32.20;;;;;;4970964;28;20889;-75
2021/10/21 02:41:12;;;;;;;8.03;1.60;;;14.60;32.30;;;;;;4970652;28;20387;-75
2021/10/21 02:43:38;;;;;;;11.10;1.70;;;14.50;33.50;;;;;;4971573;28;20408;-75
2021/10/21 02:46:04;;;;;;;10.20;1.67;;;14.50;33.30;;;;;;4970531;28;20443;-75
2021/10/21 02:48:29;;;;;;;6.68;2.20;;;14.50;33.60;;;;;;4970701;28;20384;-75
2021/10/21 02:50:55;;;;;;;4.70;1.40;;;14.50;34.10;;;;;;4970996;28;20774;-75
2021/10/21 02:53:20;;;;;;;10.60;2.10;;;14.40;34.40;;;;;;4970771;28;20830;-75
2021/10/21 02:55:46;;;;;;;6.20;1.50;;;14.30;34.80;;;;;;4975485;28;20392;-74
2021/10/21 02:58:11;;;;;;;8.53;1.60;;;14.30;35.30;;;;;;4970744;28;20881;-74
2021/10/21 03:00:37;;;;;;;6.00;1.60;;;14.30;35.00;;;;;;4970633;28;20475;-75
2021/10/21 03:03:03;;;;;;;6.75;1.85;;;14.30;35.10;;;;;;4975341;28;20408;-73
2021/10/21 03:05:28;;;;;;;4.67;1.23;;;14.30;35.10;;;;;;4969329;28;20392;-73
2021/10/21 03:07:54;;;;;;;5.68;1.35;;;14.40;34.70;;;;;;4970213;28;20928;-75
2021/10/21 03:10:19;;;;;;;8.10;1.90;;;14.40;34.50;;;;;;4970666;28;20479;-73
2021/10/21 03:12:45;;;;;;;5.67;1.40;;;14.40;34.50;;;;;;4970413;28;20468;-73
2021/10/21 03:15:11;;;;;;;6.80;1.47;;;14.40;34.90;;;;;;4971368;28;20480;-73
2021/10/21 03:17:41;;;;;;;6.57;1.60;;;14.40;35.70;;;;;;4970839;28;20384;-73
2021/10/21 03:20:10;;;;;;;7.00;1.30;;;14.40;36.00;;;;;;4976367;28;20400;-73
2021/10/21 03:22:35;;;;;;;11.02;1.60;;;14.50;35.50;;;;;;4969965;28;20423;-73
2021/10/21 03:25:01;;;;;;;5.50;1.70;;;14.50;35.00;;;;;;4970473;28;20392;-73
2021/10/21 03:27:26;;;;;;;5.50;1.47;;;14.50;35.00;;;;;;4970331;28;20495;-73
2021/10/21 03:29:52;;;;;;;6.88;1.65;;;14.50;34.40;;;;;;4970476;28;20400;-73
2021/10/21 03:32:17;;;;;;;9.80;1.53;;;14.60;34.00;;;;;;4969026;28;20479;-73
2021/10/21 03:34:43;;;;;;;10.70;1.60;;;14.60;34.10;;;;;;4969256;28;20487;-73
2021/10/21 03:37:08;;;;;;;9.17;1.60;;;14.60;33.80;;;;;;4968279;28;20399;-74
2021/10/21 03:39:35;;;;;;;5.30;1.60;;;14.60;33.30;;;;;;4970497;28;20863;-73
2021/10/21 03:42:01;;;;;;;4.55;1.60;;;14.60;33.60;;;;;;4986081;28;20431;-73
2021/10/21 03:44:26;;;;;;;4.47;1.73;;;14.60;33.80;;;;;;4976571;28;20412;-73
2021/10/21 03:46:52;;;;;;;5.93;1.40;;;14.60;33.70;;;;;;4977712;28;20459;-74
2021/10/21 03:49:18;;;;;;;7.13;1.60;;;14.60;33.30;;;;;;4978376;28;20452;-73
2021/10/21 03:51:43;;;;;;;5.30;1.50;;;14.60;33.80;;;;;;4972027;28;20420;-73
2021/10/21 03:54:13;;;;;;;4.20;1.50;;;14.60;33.00;;;;;;4972597;28;20403;-73
2021/10/21 03:56:41;;;;;;;6.70;1.70;;;14.60;33.10;;;;;;4986252;28;20410;-73
2021/10/21 03:59:06;;;;;;;6.93;1.63;;;14.60;33.20;;;;;;4973617;28;20529;-73
2021/10/21 04:01:32;;;;;;;9.77;2.20;;;14.60;33.00;;;;;;4973004;28;20494;-74
2021/10/21 04:03:57;;;;;;;8.37;1.67;;;14.60;32.90;;;;;;4971837;28;20455;-73
2021/10/21 04:06:23;;;;;;;5.15;1.60;;;14.60;33.40;;;;;;4975689;28;20445;-73
2021/10/21 04:08:48;;;;;;;8.77;1.60;;;14.50;33.30;;;;;;4973216;28;20474;-73
2021/10/21 04:11:14;;;;;;;7.70;1.90;;;14.60;33.40;;;;;;4972391;28;20388;-73
2021/10/21 04:13:39;;;;;;;5.63;1.60;;;14.60;33.80;;;;;;4973338;28;20388;-72
2021/10/21 04:16:05;;;;;;;4.35;1.45;;;14.50;33.60;;;;;;4972417;28;20404;-73
2021/10/21 04:18:30;;;;;;;6.40;1.50;;;14.50;33.40;;;;;;4974685;28;20443;-73
2021/10/21 04:20:56;;;;;;;5.93;1.30;;;14.50;33.40;;;;;;4973259;28;20392;-72
2021/10/21 04:23:21;;;;;;;7.50;1.30;;;14.50;33.50;;;;;;4971989;28;20404;-73
2021/10/21 04:25:47;;;;;;;3.90;1.40;;;14.50;33.90;;;;;;4972537;28;20420;-73
2021/10/21 04:28:13;;;;;;;4.97;1.40;;;14.50;34.00;;;;;;4972477;28;20404;-72
2021/10/21 04:30:38;;;;;;;3.42;1.70;;;14.50;34.20;;;;;;4972364;28;20403;-73
2021/10/21 04:33:04;;;;;;;6.00;1.30;;;14.50;34.70;;;;;;4973515;28;20384;-72
2021/10/21 04:35:30;;;;;;;5.93;1.50;;;14.50;33.90;;;;;;4972759;28;20392;-73
2021/10/21 04:37:55;;;;;;;4.43;1.47;;;14.40;34.30;;;;;;4974377;28;20812;-74
2021/10/21 04:40:21;;;;;;;5.23;1.50;;;14.40;34.30;;;;;;4970788;28;20770;-75
2021/10/21 04:42:46;;;;;;;2.47;1.00;;;14.40;34.30;;;;;;5003309;28;20396;-74
2021/10/21 04:45:12;;;;;;;2.75;0.93;;;14.40;34.40;;;;;;4972097;28;20680;-74
2021/10/21 04:47:38;;;;;;;3.08;1.30;;;14.40;34.30;;;;;;4972113;28;20447;-74
2021/10/21 04:50:04;;;;;;;4.97;1.10;;;14.40;34.60;;;;;;4972375;28;20392;-74
2021/10/21 04:52:29;;;;;;;2.40;0.90;;;14.40;34.70;;;;;;4976537;28;20403;-74
2021/10/21 04:54:55;;;;;;;2.58;0.88;;;14.40;35.10;;;;;;4977852;28;20404;-74
2021/10/21 04:57:20;;;;;;;4.80;1.00;;;14.40;35.20;;;;;;4972151;28;20400;-74
2021/10/21 04:59:46;;;;;;;5.38;1.00;;;14.30;36.00;;;;;;4973555;28;20438;-74
2021/10/21 05:02:12;;;;;;;2.97;0.90;;;14.30;37.00;;;;;;4976862;28;20388;-73
2021/10/21 05:04:37;;;;;;;5.90;1.20;;;14.20;38.20;;;;;;4975053;28;20423;-74
2021/10/21 05:07:03;;;;;;;3.60;1.00;;;14.10;39.10;;;;;;4972250;28;20817;-74
2021/10/21 05:09:29;;;;;;;2.70;0.70;;;14.00;40.70;;;;;;4972654;28;20423;-73
2021/10/21 05:11:54;;;;;;;3.67;0.97;;;13.90;41.40;;;;;;4972420;28;20801;-74
2021/10/21 05:14:20;;;;;;;3.60;0.90;;;13.90;42.80;;;;;;4976004;28;20833;-74
2021/10/21 05:16:46;;;;;;;2.72;0.80;;;13.80;44.30;;;;;;4971012;28;20451;-74
2021/10/21 05:19:11;;;;;;;1.70;1.00;;;13.70;46.50;;;;;;5002613;28;20388;-74
2021/10/21 05:21:37;;;;;;;1.40;0.87;;;13.60;47.50;;;;;;4972015;28;20442;-74
2021/10/21 05:24:03;;;;;;;1.77;1.00;;;13.60;48.20;;;;;;4971877;28;20855;-74
2021/10/21 05:26:29;;;;;;;3.63;0.90;;;13.60;48.40;;;;;;4972700;28;20425;-76
2021/10/21 05:28:54;;;;;;;6.07;0.97;;;13.50;48.60;;;;;;4971894;28;20400;-76
2021/10/21 05:31:20;;;;;;;3.13;1.02;;;13.40;49.10;;;;;;4972119;28;20392;-75
2021/10/21 05:33:45;;;;;;;8.95;4.85;;;13.50;49.50;;;;;;4972318;28;20396;-75
2021/10/21 05:36:11;;;;;;;5.35;2.38;;;13.40;49.00;;;;;;4979852;28;20491;-75
2021/10/21 05:38:36;;;;;;;2.20;0.90;;;13.40;49.00;;;;;;4970450;28;20396;-75
2021/10/21 05:41:02;;;;;;;6.27;2.37;;;13.30;50.20;;;;;;4971800;28;20486;-76
2021/10/21 05:43:28;;;;;;;7.80;3.50;;;13.40;49.50;;;;;;4970179;28;20758;-74
2021/10/21 05:45:53;;;;;;;2.17;1.00;;;13.40;49.80;;;;;;4971415;28;20415;-74
2021/10/21 05:48:19;;;;;;;11.47;6.00;;;13.30;49.70;;;;;;4979973;28;20477;-74
2021/10/21 05:50:44;;;;;;;7.90;3.63;;;13.30;49.10;;;;;;4971991;28;20420;-75
2021/10/21 05:53:10;;;;;;;4.65;2.50;;;13.30;51.70;;;;;;5002443;28;20686;-75
2021/10/21 05:55:36;;;;;;;2.70;0.90;;;13.20;54.20;;;;;;4986839;28;20739;-75
2021/10/21 05:58:02;;;;;;;2.20;0.80;;;13.00;57.50;;;;;;4991379;28;20726;-75
2021/10/21 06:00:28;;;;;;;5.45;1.00;;;12.90;59.10;;;;;;4972931;28;20400;-74
2021/10/21 06:02:53;;;;;;;3.97;1.20;;;12.70;59.10;;;;;;4971333;28;20503;-75
2021/10/21 06:05:23;;;;;;;2.80;1.00;;;12.60;58.60;;;;;;4970049;28;20388;-75
2021/10/21 06:07:49;;;;;;;3.35;1.15;;;12.60;57.10;;;;;;4976705;28;20421;-75
2021/10/21 06:10:15;;;;;;;2.42;1.10;;;12.50;57.00;;;;;;4971453;28;20943;-74
2021/10/21 06:12:43;;;;;;;4.50;1.30;;;12.50;57.10;;;;;;4971006;28;20392;-75
2021/10/21 06:15:09;;;;;;;3.65;1.10;;;12.40;60.50;;;;;;4971693;28;20408;-75
2021/10/21 06:17:35;;;;;;;6.30;1.30;;;12.30;65.40;;;;;;4977260;28;20797;-75
2021/10/21 06:20:00;;;;;;;6.25;1.30;;;12.20;70.50;;;;;;4971148;28;20422;-75
2021/10/21 06:22:26;;;;;;;5.25;1.67;;;12.00;71.70;;;;;;4970806;28;20396;-76
2021/10/21 06:24:51;;;;;;;9.55;1.50;;;11.90;73.70;;;;;;4970260;28;20959;-75
2021/10/21 06:27:17;;;;;;;3.50;1.15;;;11.80;72.40;;;;;;4971458;28;20443;-74
2021/10/21 06:29:43;;;;;;;;;;;11.70;73.30;;;;;;4975263;28;20089;-75
2021/10/21 06:32:10;;;;;;;2.90;0.80;;;11.50;81.30;;;;;;4971957;28;20284;-76
2021/10/21 06:34:36;;;;;;;2.67;1.20;;;11.30;84.80;;;;;;4972345;28;20685;-74
2021/10/21 06:37:02;;;;;;;4.20;0.83;;;11.20;84.40;;;;;;4972225;28;20805;-74
2021/10/21 06:39:27;;;;;;;2.33;0.60;;;11.20;87.70;;;;;;4972166;28;20481;-75
2021/10/21 06:41:53;;;;;;;1.30;0.90;;;11.10;87.30;;;;;;4977535;28;20431;-75
2021/10/21 06:44:19;;;;;;;6.70;1.33;;;11.20;87.90;;;;;;4972039;28;20738;-75
2021/10/21 06:46:44;;;;;;;2.97;1.13;;;11.10;99.20;;;;;;5002723;28;20218;-75
2021/10/21 06:49:10;;;;;;;3.93;0.90;;;10.90;99.90;;;;;;4974575;28;20165;-75
2021/10/21 06:51:35;;;;;;;6.00;1.00;;;10.80;99.90;;;;;;4972986;28;20530;-76
2021/10/21 06:54:01;;;;;;;2.40;0.93;;;10.70;99.90;;;;;;4981341;28;20215;-75
2021/10/21 06:56:26;;;;;;;;;;;10.70;96.30;;;;;;4981137;28;20156;-75
2021/10/21 06:58:52;;;;;;;;;;;10.70;94.90;;;;;;4977259;28;19913;-75
2021/10/21 07:01:18;;;;;;;3.13;2.60;;;10.70;97.20;;;;;;4974247;28;20320;-77
2021/10/21 07:03:43;;;;;;;0.60;0.40;;;10.70;94.40;;;;;;5003721;28;20390;-75
2021/10/21 07:06:09;;;;;;;0.60;0.40;;;10.70;99.90;;;;;;4966272;28;20215;-75
2021/10/21 07:08:34;;;;;;;0.60;0.40;;;10.60;99.90;;;;;;4986029;28;20175;-76
2021/10/21 07:11:01;;;;;;;0.60;0.40;;;10.60;99.90;;;;;;4973912;28;20183;-76
2021/10/21 07:13:28;;;;;;;0.60;0.50;;;10.60;99.90;;;;;;4972119;28;20197;-75
2021/10/21 07:15:53;;;;;;;1.20;0.60;;;10.60;99.90;;;;;;4986995;28;20848;-78
2021/10/21 07:18:19;;;;;;;0.60;0.40;;;10.60;99.90;;;;;;4964754;28;20440;-76
2021/10/21 07:20:44;;;;;;;0.60;0.60;;;10.60;99.90;;;;;;4954615;28;20628;-76
2021/10/21 07:23:10;;;;;;;0.60;0.40;;;10.60;99.90;;;;;;4967262;28;20186;-75
2021/10/21 07:25:36;;;;;;;0.60;0.40;;;10.60;99.90;;;;;;4969389;28;20194;-76
2021/10/21 07:28:03;;;;;;;0.60;0.40;;;10.60;99.90;;;;;;4969138;28;20190;-78
2021/10/21 07:30:30;;;;;;;9.60;1.27;;;10.60;99.90;;;;;;4972882;28;20777;-75
2021/10/21 07:32:58;;;;;;;5.83;1.57;;;10.60;99.00;;;;;;4971509;28;20422;-75
2021/10/21 07:35:24;;;;;;;10.43;2.33;;;10.60;95.30;;;;;;4968948;28;20521;-76
2021/10/21 07:37:50;;;;;;;6.13;1.73;;;10.60;92.80;;;;;;4980736;28;20436;-78
2021/10/21 07:40:15;;;;;;;6.40;1.70;;;10.60;86.70;;;;;;4974960;28;20455;-74
2021/10/21 07:42:42;;;;;;;14.50;3.37;;;10.60;89.00;;;;;;4974848;28;20664;-74
2021/10/21 07:45:09;;;;;;;3.87;1.30;;;10.70;83.30;;;;;;4980632;28;20203;-75
2021/10/21 07:47:36;;;;;;;10.60;1.63;;;10.80;79.20;;;;;;4976351;28;20818;-75
2021/10/21 07:50:04;;;;;;;17.57;1.80;;;10.80;73.90;;;;;;4975557;28;20446;-75
2021/10/21 07:52:30;;;;;;;9.90;1.93;;;10.80;68.60;;;;;;4975963;28;20434;-76
2021/10/21 07:54:55;;;;;;;6.90;1.40;;;10.90;69.40;;;;;;4979941;28;20474;-74
2021/10/21 07:57:22;;;;;;;11.43;3.80;;;10.90;68.70;;;;;;4977910;28;20222;-74
2021/10/21 07:59:48;;;;;;;10.30;2.50;;;10.90;63.90;;;;;;4974354;28;20189;-75
2021/10/21 08:02:14;;;;;;;7.70;1.70;;;10.90;66.90;;;;;;4974448;28;20464;-77
2021/10/21 08:04:40;;;;;;;10.47;1.93;;;10.90;64.90;;;;;;4999148;28;20466;-75
2021/10/21 08:07:06;;;;;;;20.63;3.00;;;11.00;62.40;;;;;;4981317;28;20499;-76
2021/10/21 08:09:32;;;;;;;5.10;1.50;;;11.00;61.10;;;;;;4973710;28;20476;-77
2021/10/21 08:12:03;;;;;;;5.03;1.53;;;11.10;60.10;;;;;;4971071;28;20194;-75
2021/10/21 08:14:29;;;;;;;10.17;2.27;;;11.10;59.50;;;;;;4973652;28;20458;-77
2021/10/21 08:16:57;;;;;;;8.97;2.03;;;11.20;61.30;;;;;;4972973;28;20523;-77
2021/10/21 08:19:23;;;;;;;10.67;2.70;;;11.30;58.60;;;;;;4973026;28;20442;-76
2021/10/21 08:21:49;;;;;;;9.67;2.57;;;11.40;57.70;;;;;;4972793;28;20424;-73
2021/10/21 08:24:16;;;;;;;8.33;2.37;;;11.50;56.50;;;;;;4974336;28;20657;-75
2021/10/21 08:26:42;;;;;;;10.17;2.73;;;11.50;57.00;;;;;;4973286;28;20501;-76
2021/10/21 08:29:08;;;;;;;18.13;2.97;;;11.40;57.60;;;;;;4973136;28;20440;-76
2021/10/21 08:31:33;;;;;;;8.57;2.80;;;11.40;61.20;;;;;;4977499;28;20660;-76
2021/10/21 08:33:59;;;;;;;13.27;3.10;;;11.50;57.40;;;;;;5005047;28;20245;-77
2021/10/21 08:36:24;;;;;;;8.10;2.07;;;11.50;56.70;;;;;;4977197;28;20609;-76
2021/10/21 08:38:51;;;;;;;33.30;3.90;;;11.60;56.40;;;;;;4972886;28;20270;-75
2021/10/21 08:41:17;;;;;;;15.90;2.80;;;11.60;56.30;;;;;;4969296;28;20179;-74
2021/10/21 08:43:43;;;;;;;17.43;2.33;;;11.60;57.90;;;;;;4972625;28;20444;-76
2021/10/21 08:46:10;;;;;;;8.97;2.23;;;11.70;54.50;;;;;;4974414;28;20478;-76
2021/10/21 08:48:40;;;;;;;14.70;4.37;;;11.80;56.00;;;;;;4974747;28;20417;-76
2021/10/21 08:51:06;;;;;;;13.33;2.73;;;11.90;53.40;;;;;;4972847;28;20518;-76
2021/10/21 08:53:33;;;;;;;13.80;4.30;;;12.10;52.80;;;;;;4974393;28;20539;-75
2021/10/21 08:55:59;;;;;;;8.80;2.90;;;12.20;51.30;;;;;;4990920;28;20970;-76
2021/10/21 08:58:26;;;;;;;14.33;2.80;;;12.20;50.80;;;;;;4978811;28;20518;-76
2021/10/21 09:00:58;;;;;;;10.47;3.10;;;12.40;47.20;;;;;;4973716;28;20274;-76
2021/10/21 09:04:39;;;;;;;9.07;3.13;;;12.70;46.00;;;;;;4975171;28;20441;-76
2021/10/21 09:09:27;;;;;;;18.97;2.77;;;13.10;44.50;;;;;;4975016;28;20424;-77
2021/10/21 09:12:08;;;;;;;17.50;3.10;;;13.00;45.20;;;;;;4973550;28;20413;-77
2021/10/21 09:14:49;;;;;;;11.00;2.83;;;12.70;49.40;;;;;;4974590;28;20467;-77
2021/10/21 09:17:17;;;;;;;14.60;2.97;;;12.40;51.30;;;;;;4977018;28;20611;-75
2021/10/21 09:19:43;;;;;;;12.63;3.43;;;12.20;53.30;;;;;;4974552;28;20421;-75
2021/10/21 09:22:28;;;;;;;8.50;3.40;;;12.20;55.70;;;;;;4973383;28;20413;-76
2021/10/21 09:24:55;;;;;;;13.30;4.23;;;12.20;52.70;;;;;;4973195;28;20887;-75
2021/10/21 09:27:28;;;;;;;11.80;2.60;;;12.20;52.60;;;;;;4954719;28;20506;-75
2021/10/21 09:29:56;;;;;;;8.83;3.63;;;12.20;48.00;;;;;;4981680;28;20472;-75
2021/10/21 09:32:28;;;;;;;6.10;3.00;;;12.20;45.10;;;;;;4974321;28;20439;-76
2021/10/21 09:35:03;;;;;;;13.23;2.50;;;12.30;42.20;;;;;;4973702;28;20439;-76
2021/10/21 09:37:41;;;;;;;10.67;3.30;;;12.30;42.60;;;;;;4972435;28;20429;-74
2021/10/21 09:40:12;;;;;;;9.20;3.00;;;12.30;42.10;;;;;;4973681;28;20441;-76
2021/10/21 09:42:40;;;;;;;10.10;2.70;;;12.30;41.50;;;;;;4970666;28;21004;-76
2021/10/21 09:45:27;;;;;;;14.27;3.97;;;12.30;40.90;;;;;;4977493;28;20454;-76
2021/10/21 09:47:55;;;;;;;8.77;2.63;;;12.40;40.10;;;;;;4975008;28;20484;-76
2021/10/21 09:50:42;;;;;;;8.33;2.10;;;12.60;40.00;;;;;;4973885;28;20468;-78
2021/10/21 09:53:22;;;;;;;3.90;2.17;;;12.80;37.80;;;;;;4974828;28;20463;-77
2021/10/21 09:56:06;;;;;;;12.03;4.10;;;13.10;36.20;;;;;;4984212;28;20443;-77
2021/10/21 09:58:34;;;;;;;4.93;2.10;;;13.20;35.90;;;;;;5005335;28;20429;-77
2021/10/21 10:01:15;;;;;;;5.00;2.27;;;13.10;36.00;;;;;;4974926;28;20805;-76
2021/10/21 10:03:42;;;;;;;14.43;2.17;;;13.20;34.90;;;;;;4972561;28;20790;-77
2021/10/21 10:06:08;;;;;;;13.53;2.47;;;13.30;35.00;;;;;;4975693;28;20523;-76
2021/10/21 10:08:34;;;;;;;5.27;1.70;;;13.30;34.30;;;;;;4973821;28;20425;-75
2021/10/21 10:11:08;;;;;;;5.40;1.63;;;13.20;32.70;;;;;;4979712;28;20787;-74
2021/10/21 10:13:34;;;;;;;6.50;1.60;;;13.10;33.20;;;;;;4983660;28;20828;-76
2021/10/21 10:16:00;;;;;;;3.30;1.30;;;13.10;33.40;;;;;;4981510;28;20441;-76
2021/10/21 10:18:31;;;;;;;15.80;2.20;;;13.10;32.80;;;;;;4979537;28;20429;-77
2021/10/21 10:21:00;;;;;;;3.97;1.43;;;13.10;34.50;;;;;;4967594;28;20194;-77
2021/10/21 10:23:26;;;;;;;7.70;1.60;;;13.10;32.00;;;;;;4974364;28;20482;-77
2021/10/21 10:25:52;;;;;;;3.00;1.70;;;13.10;33.30;;;;;;4975007;28;20425;-77
2021/10/21 10:28:19;;;;;;;3.77;1.03;;;13.10;31.20;;;;;;4974306;28;20413;-77
2021/10/21 10:30:51;;;;;;;6.40;1.43;;;13.10;30.30;;;;;;4974829;28;20209;-75
2021/10/21 10:33:32;;;;;;;7.57;1.60;;;13.00;30.50;;;;;;4972272;28;20524;-76
2021/10/21 10:36:22;;;;;;;4.77;1.80;;;13.00;30.20;;;;;;4973314;28;20412;-77
2021/10/21 10:38:48;;;;;;;6.10;2.10;;;13.10;30.60;;;;;;4975564;28;20511;-77
2021/10/21 10:41:48;;;;;;;5.13;1.83;;;13.10;31.70;;;;;;4975219;28;20405;-77
2021/10/21 10:44:36;;;;;;;4.60;1.37;;;13.20;31.00;;;;;;4969093;28;20530;-77
2021/10/21 10:47:06;;;;;;;4.50;1.70;;;13.20;32.10;;;;;;4975258;28;20946;-77
2021/10/21 10:49:38;;;;;;;25.73;2.13;;;13.20;33.60;;;;;;4978293;28;20463;-76
2021/10/21 10:52:12;;;;;;;14.03;2.00;;;13.20;34.20;;;;;;4977385;28;20600;-77
2021/10/21 10:54:52;;;;;;;8.67;1.93;;;13.30;34.20;;;;;;4983728;28;20451;-76
2021/10/21 10:57:24;;;;;;;4.90;2.00;;;13.50;33.50;;;;;;4996668;28;20404;-77
2021/10/21 10:59:49;;;;;;;16.17;2.90;;;13.90;33.00;;;;;;4992072;28;20737;-75
2021/10/21 11:02:24;;;;;;;4.40;2.33;;;14.20;32.90;;;;;;4991331;28;20455;-76
2021/10/21 11:04:56;;;;;;;11.30;2.00;;;14.40;31.80;;;;;;4976898;28;20207;-75
2021/10/21 11:07:24;;;;;;;5.10;1.80;;;14.40;31.60;;;;;;4975221;28;20507;-77
2021/10/21 11:10:14;;;;;;;11.60;1.80;;;14.40;32.50;;;;;;4972722;28;20429;-77
2021/10/21 11:12:39;;;;;;;8.97;1.87;;;14.40;32.80;;;;;;4972565;28;20906;-75
2021/10/21 11:15:28;;;;;;;4.93;1.90;;;14.70;32.90;;;;;;4973236;28;20452;-76
2021/10/21 11:17:54;;;;;;;4.70;1.50;;;14.90;32.40;;;;;;4978311;28;20639;-76
2021/10/21 11:20:34;;;;;;;9.90;1.80;;;14.90;31.50;;;;;;4978845;28;20417;-76
2021/10/21 11:23:02;;;;;;;10.60;2.43;;;14.80;31.40;;;;;;4978390;28;20421;-77
2021/10/21 11:25:31;;;;;;;9.63;1.83;;;14.80;32.20;;;;;;4974308;28;20441;-78
2021/10/21 11:27:58;;;;;;;8.27;2.33;;;14.90;32.20;;;;;;4953847;29;20481;-77
2021/10/21 11:30:29;;;;;;;10.07;1.60;;;14.80;32.80;;;;;;4968349;28;20409;-77
2021/10/21 11:32:56;;;;;;;11.03;1.73;;;14.60;32.30;;;;;;4975063;28;20457;-77
2021/10/21 11:35:27;;;;;;;7.00;2.20;;;14.50;33.00;;;;;;4982670;28;20449;-77
2021/10/21 11:38:02;;;;;;;5.23;1.90;;;14.20;33.10;;;;;;4974691;28;20459;-77
2021/10/21 11:40:37;;;;;;;5.03;1.70;;;14.00;33.80;;;;;;4973668;28;20507;-77
2021/10/21 11:43:11;;;;;;;6.07;1.93;;;14.00;33.70;;;;;;4974851;28;20485;-75
2021/10/21 11:45:38;;;;;;;5.67;1.63;;;14.20;33.60;;;;;;4981690;28;20957;-76
2021/10/21 11:48:12;;;;;;;6.90;1.53;;;14.30;33.30;;;;;;4974608;28;20456;-76
2021/10/21 11:50:46;;;;;;;3.00;1.73;;;14.20;32.50;;;;;;4975599;28;20471;-77
2021/10/21 11:53:14;;;;;;;9.03;1.10;;;14.10;32.70;;;;;;4975053;28;20412;-77
2021/10/21 11:55:41;;;;;;;11.83;2.00;;;14.10;33.80;;;;;;4988054;28;20803;-77
2021/10/21 11:58:16;;;;;;;8.53;1.50;;;14.20;34.60;;;;;;4980487;28;20416;-76
2021/10/21 12:00:49;;;;;;;4.60;1.60;;;14.30;33.20;;;;;;4973191;28;20455;-77
2021/10/21 12:03:16;;;;;;;9.80;1.47;;;14.30;33.90;;;;;;4972909;28;20413;-77
2021/10/21 12:05:43;;;;;;;4.70;1.40;;;14.20;33.90;;;;;;4973555;28;20459;-76
2021/10/21 12:08:19;;;;;;;5.17;1.23;;;14.10;34.70;;;;;;4975346;28;21044;-76
2021/10/21 12:10:46;;;;;;;8.10;2.13;;;14.10;34.80;;;;;;4973592;28;20464;-76
2021/10/21 12:13:25;;;;;;;15.57;1.40;;;14.30;35.10;;;;;;4973439;28;20413;-76
2021/10/21 12:15:52;;;;;;;3.33;1.40;;;14.40;34.30;;;;;;4973313;28;20749;-77
2021/10/21 12:18:19;;;;;;;3.43;1.27;;;14.60;34.80;;;;;;4977914;28;20452;-77
2021/10/21 12:20:49;;;;;;;7.57;1.60;;;14.80;33.20;;;;;;4973114;28;20413;-77
2021/10/21 12:23:26;;;;;;;4.43;1.77;;;14.90;33.10;;;;;;4970907;28;20849;-76
2021/10/21 12:25:55;;;;;;;3.57;1.40;;;15.10;33.00;;;;;;4974806;28;20419;-74
2021/10/21 12:28:21;;;;;;;4.43;1.17;;;15.10;32.00;;;;;;4979104;28;20495;-76
2021/10/21 12:30:48;;;;;;;3.83;1.50;;;15.00;32.80;;;;;;4977184;28;20875;-77
2021/10/21 12:33:21;;;;;;;6.80;1.50;;;14.50;33.90;;;;;;4977015;28;20696;-75
2021/10/21 12:35:58;;;;;;;4.47;1.00;;;14.10;36.30;;;;;;4975991;28;20626;-75
2021/10/21 12:38:24;;;;;;;1.67;1.57;;;12.40;99.90;;;;;;4974471;28;20957;-78
2021/10/21 12:41:01;;;;;;;3.20;1.03;;;10.90;99.90;;;;;;4974913;28;20746;-76
2021/10/21 12:43:27;;;;;;;0.70;0.40;;;10.40;99.90;;;;;;4974682;28;20546;-76
2021/10/21 12:45:54;;;;;;;0.70;0.40;;;10.40;99.90;;;;;;4973928;28;20906;-77
2021/10/21 12:48:20;;;;;;;0.70;0.50;;;10.30;99.90;;;;;;4975220;28;20453;-77
2021/10/21 12:50:46;;;;;;;0.70;0.40;;;10.10;99.90;;;;;;4979562;28;20765;-76